Terminal Aerodrome Forecast
Issued by NWS Tuscon, AZ

Home | Current Version | Previous Version | Text Only | Print | Product List | Glossary On
Versions: 1 2 3 4 5 6 7 8 9 10
746
FTUS45 KTWC 251122
TAFTUS
TAF
KTUS 251122Z 2512/2612 21009G18KT P6SM BKN250
     FM251600 24014G25KT P6SM BKN200
     FM252000 27022G31KT P6SM FEW100 BKN200
     FM260300 30012G21KT P6SM OVC200
     FM260700 20010KT P6SM BKN250=

USA.gov is the U.S. government's official web portal to all federal, state and local government web resources and services.